Time;durP1;ratioP1;P1;durP2;ratioP2;P2;SDS_P1;SDS_P2;PMS_P1;PMS_P2;Temp;Humidity;BMP_temperature;BMP_pressure;BME280_temperature;BME280_humidity;BME280_pressure;Samples;Min_cycle;Max_cycle;Signal;HPM_P1;HPM_P2
2022/09/14 00:01:46;;;;;;;3.13;2.30;;;;;;;17.81;nan;99456.22;4969274;28;20054;-67
2022/09/14 00:04:15;;;;;;;2.95;2.08;;;;;;;;;;4970788;28;20034;-67
2022/09/14 00:06:41;;;;;;;3.90;2.08;;;;;;;17.84;nan;99473.69;4971520;28;20039;-67
2022/09/14 00:09:07;;;;;;;5.30;2.50;;;;;;;;;;4970405;28;20038;-67
2022/09/14 00:11:34;;;;;;;3.13;2.10;;;;;;;17.90;nan;99486.16;4970826;28;20035;-67
2022/09/14 00:14:00;;;;;;;4.07;2.10;;;;;;;;;;4969293;28;20066;-67
2022/09/14 00:16:31;;;;;;;3.35;1.58;;;;;;;18.00;nan;99504.34;4966055;28;20027;-67
2022/09/14 00:19:04;;;;;;;2.08;1.50;;;;;;;18.04;nan;99500.16;4971112;28;20037;-67
2022/09/14 00:21:33;;;;;;;2.95;1.63;;;;;;;18.03;nan;99502.03;4969672;28;20396;-67
2022/09/14 00:23:59;;;;;;;5.30;2.45;;;;;;;;;;4971248;28;20085;-67
2022/09/14 00:26:25;;;;;;;5.17;2.43;;;;;;;17.94;nan;99481.97;4969136;28;20074;-68
2022/09/14 00:28:54;;;;;;;5.35;3.25;;;;;;;17.89;nan;99463.13;4962916;28;20464;-68
2022/09/14 00:31:20;;;;;;;3.90;2.50;;;;;;;17.87;nan;99459.03;4977943;28;20038;-67
2022/09/14 00:33:47;;;;;;;2.63;1.90;;;;;;;;;;4971337;28;20030;-67
2022/09/14 00:36:15;;;;;;;4.55;2.35;;;;;;;17.92;nan;99451.94;4970730;28;20395;-68
2022/09/14 00:38:40;;;;;;;3.00;2.40;;;;;;;17.90;nan;99427.31;4970893;28;20031;-67
2022/09/14 00:41:11;;;;;;;3.13;1.90;;;;;;;17.92;nan;99425.22;4967762;28;20031;-67
2022/09/14 00:44:15;;;;;;;3.60;2.00;;;;;;;17.84;nan;99422.88;4970936;28;20023;-67
2022/09/14 00:46:42;;;;;;;4.05;2.15;;;;;;;;;;4948044;28;20038;-67
2022/09/14 00:49:11;;;;;;;3.22;1.90;;;;;;;17.71;nan;99390.91;4970475;28;20090;-67
2022/09/14 00:51:47;;;;;;;2.85;1.80;;;;;;;17.67;nan;99373.72;4970054;28;20077;-67
2022/09/14 00:54:12;;;;;;;4.65;2.30;;;;;;;;;;4962452;28;20067;-67
2022/09/14 00:56:37;;;;;;;4.25;2.22;;;;;;;17.57;nan;99369.72;4969330;28;20457;-67
2022/09/14 00:59:05;;;;;;;3.47;1.88;;;;;;;;;;4967846;28;20479;-67
2022/09/14 01:01:30;;;;;;;4.78;2.20;;;;;;;17.52;nan;99361.56;4963628;28;20031;-67
2022/09/14 01:03:56;;;;;;;4.18;2.20;;;;;;;;;;4968176;28;20042;-67
2022/09/14 01:06:35;;;;;;;3.93;2.03;;;;;;;17.44;nan;99353.03;4968173;28;20051;-67
2022/09/14 01:09:06;;;;;;;2.88;1.88;;;;;;;;;;4970291;28;20065;-66
2022/09/14 01:11:53;;;;;;;3.63;2.13;;;;;;;17.42;nan;99361.25;4969225;28;20443;-67
2022/09/14 01:14:31;;;;;;;3.58;2.25;;;;;;;17.42;nan;99366.59;4971850;28;20030;-67
2022/09/14 01:17:06;;;;;;;3.63;2.65;;;;;;;17.37;nan;99353.09;4964977;28;20134;-67
2022/09/14 01:20:09;;;;;;;5.80;2.53;;;;;;;17.35;nan;99345.34;4969848;28;20042;-67
2022/09/14 01:22:47;;;;;;;4.63;2.65;;;;;;;17.31;nan;99344.16;4968442;28;20039;-66
2022/09/14 01:25:37;;;;;;;3.45;2.40;;;;;;;17.30;nan;99341.69;4970870;28;20023;-66
2022/09/14 01:28:07;;;;;;;3.00;2.53;;;;;;;;;;4966388;28;20042;-66
2022/09/14 01:30:34;;;;;;;5.47;2.85;;;;;;;17.23;nan;99351.66;4968374;28;20041;-66
2022/09/14 01:33:16;;;;;;;3.63;2.47;;;;;;;17.20;nan;99337.69;4969068;28;20133;-66
2022/09/14 01:35:53;;;;;;;;;;;;;;;17.23;nan;99352.44;4969162;28;20035;-66
2022/09/14 01:38:25;;;;;;;4.93;2.90;;;;;;;;;;4967810;28;20039;-66
2022/09/14 01:40:51;;;;;;;5.18;2.80;;;;;;;17.23;nan;99357.78;4969885;28;20035;-66
2022/09/14 01:43:42;;;;;;;3.42;2.30;;;;;;;17.24;nan;99363.97;4975874;28;20026;-66
2022/09/14 01:46:13;;;;;;;;;;;;;;;17.20;nan;99359.06;4962891;28;20039;-67
2022/09/14 01:48:43;;;;;;;3.90;2.47;;;;;;;;;;4976119;28;19997;-66
2022/09/14 01:51:12;;;;;;;5.25;2.95;;;;;;;17.22;nan;99366.88;4969641;28;20038;-66
2022/09/14 01:53:52;;;;;;;7.65;3.10;;;;;;;17.20;nan;99369.75;4974454;28;20031;-66
2022/09/14 01:56:23;;;;;;;4.80;2.90;;;;;;;17.24;nan;99369.31;4969127;28;20023;-66
2022/09/14 01:58:52;;;;;;;5.25;3.13;;;;;;;;;;4969626;28;20027;-66
2022/09/14 02:01:23;;;;;;;4.95;3.25;;;;;;;17.25;nan;99366.41;4969510;28;20397;-66
2022/09/14 02:03:51;;;;;;;4.80;2.78;;;;;;;;;;4972560;28;20041;-66
2022/09/14 02:06:31;;;;;;;3.88;2.10;;;;;;;17.32;nan;99372.50;4968570;28;20130;-65
2022/09/14 02:08:59;;;;;;;5.97;3.03;;;;;;;17.34;nan;99369.59;4972558;28;20416;-66
2022/09/14 02:11:24;;;;;;;16.67;6.75;;;;;;;17.37;nan;99375.28;4969352;28;20121;-66
2022/09/14 02:13:49;;;;;;;15.80;6.95;;;;;;;;;;4971687;28;20066;-66
2022/09/14 02:16:14;;;;;;;10.33;4.40;;;;;;;17.42;nan;99377.31;4968681;28;20511;-66
2022/09/14 02:18:42;;;;;;;6.28;3.13;;;;;;;;;;4969219;28;20456;-65
2022/09/14 02:21:14;;;;;;;5.32;3.00;;;;;;;17.50;nan;99386.88;4968899;28;20059;-65
2022/09/14 02:23:40;;;;;;;3.85;2.17;;;;;;;17.52;nan;99382.94;4974770;28;20060;-66
2022/09/14 02:26:06;;;;;;;4.65;2.20;;;;;;;;;;4969062;28;20038;-66
2022/09/14 02:28:31;;;;;;;3.78;1.90;;;;;;;17.60;nan;99379.94;4969206;28;20039;-66
2022/09/14 02:31:31;;;;;;;3.60;2.08;;;;;;;17.61;nan;99391.44;4968970;28;20633;-65
2022/09/14 02:34:41;;;;;;;4.13;1.70;;;;;;;17.63;nan;99384.03;4975346;28;20148;-65
2022/09/14 02:37:12;;;;;;;3.95;2.00;;;;;;;17.59;nan;99388.19;4948962;28;20105;-65
2022/09/14 02:39:51;;;;;;;;;;;;;;;17.59;nan;99383.69;4968628;28;20023;-65
2022/09/14 02:42:35;;;;;;;8.05;2.85;;;;;;;17.52;nan;99369.59;4967906;28;19917;-65
2022/09/14 02:45:04;;;;;;;7.22;3.50;;;;;;;17.45;nan;99349.31;4966432;28;20047;-65
2022/09/14 02:47:33;;;;;;;6.50;3.25;;;;;;;17.38;nan;99349.41;4967980;28;20055;-65
2022/09/14 02:50:15;;;;;;;5.43;3.10;;;;;;;17.35;nan;99334.66;4966742;28;20146;-65
2022/09/14 02:52:52;;;;;;;3.58;2.40;;;;;;;17.33;nan;99334.06;4968919;28;20094;-65
2022/09/14 02:55:19;;;;;;;3.92;2.08;;;;;;;;;;4966933;28;20039;-65
2022/09/14 02:58:01;;;;;;;5.68;2.20;;;;;;;17.25;nan;99307.63;4968702;28;20423;-65
2022/09/14 03:00:27;;;;;;;5.15;2.13;;;;;;;17.18;nan;99302.41;4965974;28;20043;-65
2022/09/14 03:02:53;;;;;;;4.75;1.90;;;;;;;17.20;nan;99300.28;4968250;28;20059;-65
2022/09/14 03:05:19;;;;;;;5.03;1.95;;;;;;;;;;4968239;28;20567;-65
2022/09/14 03:07:44;;;;;;;6.15;1.88;;;;;;;;;;4968427;28;20058;-65
2022/09/14 03:10:09;;;;;;;4.82;1.70;;;;;;;17.18;nan;99281.03;4966255;28;20093;-66
2022/09/14 03:12:37;;;;;;;5.32;2.00;;;;;;;17.17;nan;99274.03;4966548;28;20130;-65
2022/09/14 03:15:02;;;;;;;2.45;1.50;;;;;;;;;;4961151;28;20047;-64
2022/09/14 03:17:27;;;;;;;3.72;1.60;;;;;;;;;;4968286;28;20720;-65
2022/09/14 03:19:52;;;;;;;3.97;1.40;;;;;;;;;;4966598;28;20518;-65
2022/09/14 03:22:17;;;;;;;2.77;1.30;;;;;;;;;;4967952;28;20092;-65
2022/09/14 03:24:43;;;;;;;2.83;1.60;;;;;;;17.23;nan;99272.31;4961600;28;20503;-65
2022/09/14 03:27:08;;;;;;;3.97;1.30;;;;;;;;;;4967911;28;20043;-65
2022/09/14 03:29:33;;;;;;;2.37;1.20;;;;;;;;;;4967110;28;20708;-65
2022/09/14 03:31:58;;;;;;;1.97;1.17;;;;;;;17.29;nan;99244.69;4967960;28;20039;-65
2022/09/14 03:34:23;;;;;;;2.30;1.20;;;;;;;;;;4968135;28;20093;-65
2022/09/14 03:36:48;;;;;;;4.93;1.73;;;;;;;;;;4968955;28;20274;-65
2022/09/14 03:39:14;;;;;;;4.53;1.93;;;;;;;;;;4972215;28;20035;-65
2022/09/14 03:41:39;;;;;;;3.53;1.80;;;;;;;17.29;nan;99223.31;4970118;28;20110;-65
2022/09/14 03:44:04;;;;;;;2.90;1.60;;;;;;;;;;4972444;28;20043;-65
2022/09/14 03:46:29;;;;;;;4.68;1.65;;;;;;;;;;4970708;28;20039;-65
2022/09/14 03:48:54;;;;;;;3.70;1.40;;;;;;;;;;4971511;28;20038;-65
2022/09/14 03:51:20;;;;;;;4.30;1.60;;;;;;;17.31;nan;99263.19;4970142;28;20047;-65
2022/09/14 03:53:46;;;;;;;3.30;1.45;;;;;;;17.29;nan;99265.25;4971573;28;20085;-65
2022/09/14 03:56:15;;;;;;;3.10;1.90;;;;;;;17.29;nan;99266.06;4964610;28;20039;-66
2022/09/14 03:58:40;;;;;;;3.65;1.80;;;;;;;;;;4969402;28;20035;-65
2022/09/14 04:01:07;;;;;;;3.97;1.90;;;;;;;;;;4968836;28;20043;-65
2022/09/14 04:03:33;;;;;;;5.22;1.90;;;;;;;;;;4971569;28;20078;-65
2022/09/14 04:05:58;;;;;;;2.80;1.80;;;;;;;17.32;nan;99265.59;4965906;28;20047;-65
2022/09/14 04:08:24;;;;;;;2.58;1.60;;;;;;;17.33;nan;99263.78;4970793;28;20072;-65
2022/09/14 04:10:50;;;;;;;2.28;1.25;;;;;;;;;;4968526;28;20039;-65
2022/09/14 04:13:15;;;;;;;5.20;2.00;;;;;;;;;;4969204;28;20067;-65
2022/09/14 04:15:40;;;;;;;3.37;1.90;;;;;;;17.32;nan;99270.16;4970041;28;20038;-65
2022/09/14 04:18:05;;;;;;;3.25;1.98;;;;;;;17.32;nan;99280.84;4984651;28;20540;-65
2022/09/14 04:20:31;;;;;;;3.28;1.75;;;;;;;17.34;nan;99268.06;4971426;28;20026;-65
2022/09/14 04:22:56;;;;;;;3.22;1.52;;;;;;;;;;4970016;28;20520;-65
2022/09/14 04:25:22;;;;;;;1.95;1.35;;;;;;;;;;4971894;28;20069;-65
2022/09/14 04:27:48;;;;;;;2.70;1.20;;;;;;;17.38;nan;99270.06;4970798;28;20511;-65
2022/09/14 04:30:13;;;;;;;3.17;1.60;;;;;;;;;;4970268;28;20054;-65
2022/09/14 04:32:38;;;;;;;2.00;1.40;;;;;;;17.42;nan;99259.72;4969949;28;20035;-65
2022/09/14 04:35:04;;;;;;;2.87;1.70;;;;;;;17.44;nan;99267.50;4971345;28;20061;-65
2022/09/14 04:37:31;;;;;;;2.45;1.60;;;;;;;17.45;nan;99266.47;4964755;28;20267;-65
2022/09/14 04:39:56;;;;;;;2.80;1.30;;;;;;;17.48;nan;99274.84;4970886;28;20043;-65
2022/09/14 04:42:21;;;;;;;2.58;1.70;;;;;;;;;;4968760;28;20057;-65
2022/09/14 04:44:46;;;;;;;4.77;1.70;;;;;;;17.50;nan;99272.78;4970597;28;20046;-65
2022/09/14 04:47:12;;;;;;;4.95;1.80;;;;;;;17.51;nan;99274.38;4968423;28;20069;-65
2022/09/14 04:49:37;;;;;;;3.17;2.00;;;;;;;17.49;nan;99281.81;4970722;28;20038;-65
2022/09/14 04:52:02;;;;;;;3.25;1.58;;;;;;;17.49;nan;99249.75;4969911;28;20488;-65
2022/09/14 04:54:27;;;;;;;2.72;1.90;;;;;;;;;;4970273;28;20062;-65
2022/09/14 04:56:52;;;;;;;4.93;1.90;;;;;;;;;;4968469;28;20174;-65
2022/09/14 04:59:18;;;;;;;3.87;1.50;;;;;;;;;;4970390;28;20031;-65
2022/09/14 05:01:46;;;;;;;2.63;1.70;;;;;;;17.54;nan;99257.91;4969963;28;20125;-65
2022/09/14 05:04:11;;;;;;;3.70;1.95;;;;;;;;;;4970048;28;20488;-65
2022/09/14 05:06:38;;;;;;;3.67;1.70;;;;;;;17.56;nan;99265.69;4970428;28;20038;-65
2022/09/14 05:09:09;;;;;;;3.17;1.70;;;;;;;17.54;nan;99396.06;4969752;28;20042;-65
2022/09/14 05:11:35;;;;;;;3.53;2.00;;;;;;;17.53;nan;99272.31;4969178;28;20031;-65
2022/09/14 05:14:00;;;;;;;2.95;2.10;;;;;;;;;;4970016;28;20105;-65
2022/09/14 05:16:28;;;;;;;3.72;1.85;;;;;;;17.58;nan;99288.47;4970193;28;20098;-65
2022/09/14 05:18:56;;;;;;;3.30;1.75;;;;;;;17.64;nan;99278.75;4969565;28;20403;-65
2022/09/14 05:21:22;;;;;;;3.45;1.80;;;;;;;;;;4969934;28;20034;-65
2022/09/14 05:23:53;;;;;;;4.70;2.42;;;;;;;17.67;nan;99272.13;4967187;28;20031;-65
2022/09/14 05:26:18;;;;;;;4.45;2.30;;;;;;;;;;4970032;28;20294;-65
2022/09/14 05:28:48;;;;;;;6.23;3.07;;;;;;;;;;4967964;28;20046;-65
2022/09/14 05:31:14;;;;;;;4.60;2.85;;;;;;;17.66;nan;99273.16;4970726;28;20109;-65
2022/09/14 05:33:40;;;;;;;3.40;2.53;;;;;;;17.68;nan;99279.09;4969664;28;20031;-64
2022/09/14 05:36:07;;;;;;;4.38;2.67;;;;;;;17.68;nan;99285.25;4970061;28;20121;-64
2022/09/14 05:38:35;;;;;;;5.15;3.00;;;;;;;17.69;nan;99291.44;4966535;28;20034;-65
2022/09/14 05:41:00;;;;;;;5.28;3.70;;;;;;;17.68;nan;99279.91;4969239;28;20121;-65
2022/09/14 05:43:27;;;;;;;3.53;3.00;;;;;;;17.70;nan;99271.66;4968314;28;20034;-65
2022/09/14 05:45:52;;;;;;;4.40;3.38;;;;;;;;;;4961869;28;20121;-65
2022/09/14 05:48:17;;;;;;;4.47;3.27;;;;;;;;;;4969576;28;20484;-65
2022/09/14 05:50:43;;;;;;;4.60;2.97;;;;;;;17.67;nan;99285.50;4969154;28;20992;-65
2022/09/14 05:53:08;;;;;;;4.35;3.33;;;;;;;;;;4969240;28;20052;-65
2022/09/14 05:55:33;;;;;;;5.00;3.30;;;;;;;;;;4969938;28;20118;-65
2022/09/14 05:57:59;;;;;;;3.33;2.55;;;;;;;;;;4968565;28;20031;-64
2022/09/14 06:00:24;;;;;;;4.00;2.83;;;;;;;17.73;nan;99273.88;4963760;28;20035;-65
2022/09/14 06:02:51;;;;;;;5.10;2.70;;;;;;;17.75;nan;99263.75;4969389;28;20514;-65
2022/09/14 06:05:17;;;;;;;4.28;2.70;;;;;;;17.77;nan;99267.03;4966940;28;20038;-65
2022/09/14 06:07:43;;;;;;;3.42;2.58;;;;;;;17.73;nan;99261.34;4970775;28;20054;-65
2022/09/14 06:10:09;;;;;;;3.13;2.33;;;;;;;;;;4966939;28;20042;-65
2022/09/14 06:12:34;;;;;;;5.85;3.72;;;;;;;17.73;nan;99255.16;4969310;28;20039;-65
2022/09/14 06:15:00;;;;;;;6.15;3.92;;;;;;;;;;4967712;28;20046;-65
2022/09/14 06:17:27;;;;;;;4.93;3.50;;;;;;;17.68;nan;99236.31;4969448;28;20030;-65
2022/09/14 06:19:52;;;;;;;4.43;3.38;;;;;;;;;;4962075;28;20068;-64
2022/09/14 06:22:18;;;;;;;3.23;2.70;;;;;;;;;;4968930;28;20786;-65
2022/09/14 06:24:43;;;;;;;4.10;3.05;;;;;;;;;;4967673;28;20045;-64
2022/09/14 06:27:09;;;;;;;5.30;3.90;;;;;;;17.93;nan;99284.31;4969207;28;20050;-64
2022/09/14 06:29:34;;;;;;;3.33;2.70;;;;;;;17.93;nan;99266.38;4965741;28;20042;-65
2022/09/14 06:32:00;;;;;;;6.10;4.07;;;;;;;17.90;nan;99277.56;4967177;28;20039;-65
2022/09/14 06:34:25;;;;;;;4.22;3.40;;;;;;;17.93;nan;99273.59;4968914;28;20492;-65
2022/09/14 06:36:50;;;;;;;8.85;4.88;;;;;;;;;;4968893;28;20039;-65
2022/09/14 06:39:16;;;;;;;5.70;4.83;;;;;;;;;;4968826;28;20034;-65
2022/09/14 06:41:41;;;;;;;5.88;4.28;;;;;;;;;;4965525;28;20566;-65
2022/09/14 06:44:06;;;;;;;6.03;4.72;;;;;;;;;;4968779;28;20042;-65
2022/09/14 06:46:32;;;;;;;5.03;4.13;;;;;;;;;;4967165;28;20179;-65
2022/09/14 06:48:59;;;;;;;5.82;4.45;;;;;;;;;;4968720;28;20070;-65
2022/09/14 06:51:28;;;;;;;5.25;3.90;;;;;;;17.79;nan;99291.69;4968746;28;20038;-65
2022/09/14 06:53:54;;;;;;;3.78;2.83;;;;;;;;;;4968645;28;20057;-65
2022/09/14 06:56:20;;;;;;;6.00;3.30;;;;;;;;;;4969533;28;20096;-65
2022/09/14 06:58:45;;;;;;;4.18;2.83;;;;;;;;;;4961648;28;20347;-65
2022/09/14 07:01:11;;;;;;;5.93;4.17;;;;;;;;;;4968336;28;20075;-65
2022/09/14 07:03:38;;;;;;;4.70;3.65;;;;;;;17.87;nan;99282.53;4968803;28;20038;-65
2022/09/14 07:06:07;;;;;;;5.90;3.63;;;;;;;;;;4966719;28;20062;-65
2022/09/14 07:08:34;;;;;;;5.43;3.50;;;;;;;17.90;nan;99276.72;4967114;28;20316;-65
2022/09/14 07:10:59;;;;;;;4.47;3.35;;;;;;;17.98;nan;99263.84;4972650;28;20385;-65
2022/09/14 07:13:26;;;;;;;4.57;3.60;;;;;;;18.06;nan;99260.00;4966633;28;20030;-65
2022/09/14 07:15:51;;;;;;;4.90;3.22;;;;;;;18.18;nan;99268.03;4976818;28;20035;-65
2022/09/14 07:18:17;;;;;;;3.33;2.78;;;;;;;18.31;nan;99269.66;4972029;28;20030;-65
2022/09/14 07:20:42;;;;;;;3.97;2.70;;;;;;;;;;4972783;28;20408;-65
2022/09/14 07:23:07;;;;;;;4.03;2.77;;;;;;;18.56;nan;99297.00;4972230;28;20038;-65
2022/09/14 07:25:32;;;;;;;5.95;3.85;;;;;;;18.65;nan;99424.09;4972556;28;20109;-65
2022/09/14 07:27:59;;;;;;;4.72;3.25;;;;;;;18.63;nan;99280.81;4971633;28;20229;-65
2022/09/14 07:30:26;;;;;;;5.97;3.75;;;;;;;18.59;nan;99264.41;4971717;28;20121;-65
2022/09/14 07:32:52;;;;;;;8.38;5.30;;;;;;;18.48;nan;99267.09;4972515;28;20045;-65
2022/09/14 07:35:17;;;;;;;6.18;4.57;;;;;;;;;;4972509;28;20035;-65
2022/09/14 07:37:42;;;;;;;5.23;3.83;;;;;;;;;;4972671;28;20278;-65
2022/09/14 07:40:08;;;;;;;5.88;3.95;;;;;;;18.68;nan;99278.22;4971630;28;20134;-65
2022/09/14 07:42:33;;;;;;;6.20;3.65;;;;;;;18.78;nan;99283.84;4972304;28;20189;-65
2022/09/14 07:44:59;;;;;;;6.05;4.45;;;;;;;;;;4972237;28;20126;-65
2022/09/14 07:47:24;;;;;;;7.27;3.83;;;;;;;18.98;nan;99255.84;4977057;28;20403;-65
2022/09/14 07:49:49;;;;;;;5.27;3.63;;;;;;;;;;4971727;28;20500;-65
2022/09/14 07:52:14;;;;;;;4.13;3.10;;;;;;;19.35;nan;99451.94;4976210;28;20627;-65
2022/09/14 07:54:40;;;;;;;4.63;3.70;;;;;;;19.50;nan;99470.25;4972185;28;20047;-65
2022/09/14 07:57:05;;;;;;;4.70;3.33;;;;;;;19.51;nan;99467.31;4975926;28;20364;-65
2022/09/14 07:59:31;;;;;;;5.40;4.30;;;;;;;19.49;nan;99487.38;4969071;28;20041;-65
2022/09/14 08:01:56;;;;;;;7.83;3.80;;;;;;;19.44;nan;99489.94;4972732;28;20030;-65
2022/09/14 08:04:22;;;;;;;4.60;3.77;;;;;;;19.43;nan;99499.06;4971103;28;20281;-65
2022/09/14 08:06:47;;;;;;;5.32;4.28;;;;;;;19.46;nan;99502.06;4972688;28;20344;-65
2022/09/14 08:09:13;;;;;;;5.53;4.40;;;;;;;19.53;nan;99502.75;4963545;28;20366;-65
2022/09/14 08:11:38;;;;;;;6.88;5.20;;;;;;;19.53;nan;99496.56;4971339;28;20329;-65
2022/09/14 08:14:05;;;;;;;5.93;5.32;;;;;;;19.56;nan;99489.94;4968569;28;20496;-66
2022/09/14 08:16:33;;;;;;;7.72;6.05;;;;;;;19.62;nan;99492.50;4971505;28;20030;-65
2022/09/14 08:19:05;;;;;;;7.13;5.78;;;;;;;19.71;nan;99488.41;4970705;28;20090;-65
2022/09/14 08:21:31;;;;;;;6.75;5.75;;;;;;;19.74;nan;99497.84;4970697;28;20042;-65
2022/09/14 08:23:57;;;;;;;6.75;5.80;;;;;;;19.81;nan;99495.03;4964489;28;20399;-65
2022/09/14 08:26:24;;;;;;;6.63;5.10;;;;;;;20.09;nan;99510.34;4971682;28;20034;-65
2022/09/14 08:28:50;;;;;;;5.40;4.70;;;;;;;20.29;nan;99512.59;4970568;28;20034;-65
2022/09/14 08:31:21;;;;;;;5.70;4.32;;;;;;;20.34;nan;99518.88;4970069;28;20408;-65
2022/09/14 08:33:52;;;;;;;8.27;5.90;;;;;;;20.29;nan;99517.97;4952425;28;20031;-65
2022/09/14 08:36:20;;;;;;;8.60;6.95;;;;;;;20.19;nan;99532.03;4969536;28;20106;-66
2022/09/14 08:38:45;;;;;;;6.90;5.40;;;;;;;20.14;nan;99534.56;4969288;28;20077;-65
2022/09/14 08:41:23;;;;;;;6.88;5.05;;;;;;;20.14;nan;99548.84;4971208;28;20062;-65
2022/09/14 08:43:48;;;;;;;6.38;5.05;;;;;;;20.14;nan;99554.22;4967633;28;20042;-66
2022/09/14 08:46:26;;;;;;;5.40;4.53;;;;;;;20.12;nan;99566.22;4970577;28;20454;-65
2022/09/14 08:48:52;;;;;;;5.72;4.53;;;;;;;20.11;nan;99560.03;4968965;28;20038;-65
2022/09/14 08:51:17;;;;;;;4.60;3.20;;;;;;;20.24;nan;99558.97;4971020;28;20035;-65
2022/09/14 08:53:43;;;;;;;4.65;3.50;;;;;;;20.33;nan;99554.84;4969367;28;20049;-66
2022/09/14 08:56:16;;;;;;;5.32;4.30;;;;;;;20.37;nan;99553.28;4970539;28;20451;-66
2022/09/14 08:59:00;;;;;;;4.88;3.63;;;;;;;20.41;nan;99540.22;4969363;28;20404;-65
2022/09/14 09:01:57;;;;;;;5.47;3.90;;;;;;;20.46;nan;99545.66;4966623;28;20492;-65
2022/09/14 09:04:27;;;;;;;5.93;3.53;;;;;;;20.42;nan;99547.19;4962420;28;20061;-66
2022/09/14 09:07:16;;;;;;;7.45;4.55;;;;;;;20.37;nan;99544.41;4970540;28;20118;-65
2022/09/14 09:09:45;;;;;;;4.85;4.15;;;;;;;20.33;nan;99544.09;4968861;28;20507;-66
2022/09/14 09:12:16;;;;;;;6.43;4.57;;;;;;;20.40;nan;99552.00;4970056;28;20332;-67
2022/09/14 09:14:55;;;;;;;5.03;3.63;;;;;;;20.52;nan;99551.94;4970503;28;20030;-66
2022/09/14 09:17:29;;;;;;;5.60;4.22;;;;;;;20.53;nan;99548.22;4963559;28;20511;-65
2022/09/14 09:20:04;;;;;;;7.53;5.03;;;;;;;20.57;nan;99549.41;4974269;28;20031;-66
2022/09/14 09:22:37;;;;;;;7.55;4.90;;;;;;;20.61;nan;99550.53;4969839;28;20035;-66
2022/09/14 09:25:03;;;;;;;6.65;5.43;;;;;;;20.66;nan;99549.81;4969939;28;20122;-65
2022/09/14 09:27:28;;;;;;;7.00;5.78;;;;;;;20.54;nan;99553.31;4970975;28;20039;-66
2022/09/14 09:29:54;;;;;;;6.50;5.80;;;;;;;20.45;nan;99543.22;4971207;28;20118;-66
2022/09/14 09:32:22;;;;;;;10.68;6.47;;;;;;;20.34;nan;99551.09;4968822;28;20504;-66
2022/09/14 09:34:48;;;;;;;8.43;6.82;;;;;;;20.23;nan;99545.75;4969528;28;20066;-65
2022/09/14 09:37:16;;;;;;;7.50;6.28;;;;;;;20.17;nan;99536.00;4970035;28;20480;-66
2022/09/14 09:39:42;;;;;;;9.73;6.47;;;;;;;20.20;nan;99536.31;4969462;28;20031;-65
2022/09/14 09:42:17;;;;;;;7.82;6.18;;;;;;;20.29;nan;99542.13;4969306;28;20134;-66
2022/09/14 09:44:52;;;;;;;7.88;6.07;;;;;;;20.40;nan;99535.88;4969682;28;20500;-66
2022/09/14 09:47:25;;;;;;;9.02;6.53;;;;;;;20.52;nan;99511.66;4975725;28;20031;-65
2022/09/14 09:49:58;;;;;;;8.75;6.35;;;;;;;20.74;nan;99501.06;4975030;28;20066;-66
2022/09/14 09:52:23;;;;;;;7.43;6.28;;;;;;;21.71;nan;99493.59;4967972;28;20039;-66
2022/09/14 09:54:51;;;;;;;8.23;6.43;;;;;;;22.65;nan;99498.66;4969808;28;20093;-66
2022/09/14 09:57:35;;;;;;;6.03;5.43;;;;;;;22.93;nan;99496.72;4969684;28;20023;-66
2022/09/14 10:00:17;;;;;;;9.20;6.55;;;;;;;24.23;nan;99487.13;4968597;28;20467;-66
2022/09/14 10:02:42;;;;;;;8.25;5.60;;;;;;;25.57;nan;99475.13;4969404;28;20031;-66
2022/09/14 10:05:07;;;;;;;6.00;4.63;;;;;;;27.12;nan;99473.03;4967972;28;20042;-66
2022/09/14 10:07:36;;;;;;;5.97;4.60;;;;;;;27.36;nan;99472.25;4969555;28;20031;-67
2022/09/14 10:10:13;;;;;;;7.60;4.13;;;;;;;27.82;nan;99466.28;4968722;28;20049;-66
2022/09/14 10:12:46;;;;;;;5.28;3.50;;;;;;;27.25;nan;99480.53;4970259;28;20061;-66
2022/09/14 10:15:25;;;;;;;6.13;4.20;;;;;;;27.07;nan;99475.81;4969116;28;20044;-66
2022/09/14 10:18:08;;;;;;;5.43;3.83;;;;;;;27.07;nan;99470.38;4969367;28;20043;-66
2022/09/14 10:20:34;;;;;;;4.65;3.42;;;;;;;28.82;nan;99447.09;4968691;28;20042;-67
2022/09/14 10:23:18;;;;;;;4.00;3.00;;;;;;;30.15;nan;99438.97;4969167;28;20125;-67
2022/09/14 10:25:48;;;;;;;5.75;3.03;;;;;;;30.73;nan;99435.41;4962838;28;20122;-67
2022/09/14 10:28:27;;;;;;;4.03;2.75;;;;;;;30.97;nan;99437.00;4968150;28;20503;-67
2022/09/14 10:31:11;;;;;;;3.53;2.58;;;;;;;31.21;nan;99439.34;4967533;28;20042;-67
2022/09/14 10:33:37;;;;;;;3.85;2.90;;;;;;;31.64;nan;99441.41;4969336;28;20082;-67
2022/09/14 10:36:14;;;;;;;4.32;3.33;;;;;;;31.15;nan;99432.41;4968609;28;20534;-67
2022/09/14 10:38:58;;;;;;;7.65;3.33;;;;;;;31.01;nan;99429.78;4968721;28;20061;-67
2022/09/14 10:41:44;;;;;;;6.43;3.70;;;;;;;30.67;nan;99423.81;4968603;28;20035;-67
2022/09/14 10:44:45;;;;;;;4.90;3.40;;;;;;;30.85;nan;99418.47;4966949;28;20042;-67
2022/09/14 10:47:23;;;;;;;3.30;2.50;;;;;;;31.16;nan;99418.44;4964677;28;20122;-67
2022/09/14 10:50:22;;;;;;;4.10;3.13;;;;;;;30.87;nan;99414.31;4968551;28;20035;-67
2022/09/14 10:53:06;;;;;;;4.65;2.97;;;;;;;30.79;nan;99406.03;4967069;28;20042;-67
2022/09/14 10:55:45;;;;;;;4.10;3.08;;;;;;;31.13;nan;99399.13;4956529;28;20093;-67
2022/09/14 10:58:17;;;;;;;3.35;2.80;;;;;;;31.04;nan;99385.47;4967885;28;20117;-68
2022/09/14 11:00:59;;;;;;;4.50;3.15;;;;;;;30.21;nan;99383.22;4963445;28;20034;-68
2022/09/14 11:03:59;;;;;;;4.55;3.78;;;;;;;29.46;nan;99374.53;4959857;28;20034;-67
2022/09/14 11:06:44;;;;;;;5.60;3.85;;;;;;;29.10;nan;99369.84;4944985;28;20125;-67
2022/09/14 11:09:29;;;;;;;5.18;4.30;;;;;;;28.36;nan;99356.22;4968571;28;20072;-67
2022/09/14 11:12:00;;;;;;;4.63;3.95;;;;;;;28.93;nan;99366.91;4961971;28;20637;-67
2022/09/14 11:14:43;;;;;;;4.00;3.10;;;;;;;29.32;nan;99355.53;4966154;28;20039;-67
2022/09/14 11:17:23;;;;;;;5.03;3.28;;;;;;;28.53;nan;99352.94;4975138;28;20364;-67
2022/09/14 11:20:26;;;;;;;3.50;2.78;;;;;;;28.91;nan;99352.78;4968446;28;20026;-67
2022/09/14 11:23:08;;;;;;;4.20;2.60;;;;;;;30.49;nan;99351.19;4974664;28;20137;-67
2022/09/14 11:25:48;;;;;;;2.65;2.33;;;;;;;30.63;nan;99351.91;4968711;28;20047;-67
2022/09/14 11:28:23;;;;;;;2.87;2.30;;;;;;;30.11;nan;99346.13;4973690;28;20035;-68
2022/09/14 11:30:56;;;;;;;3.83;2.83;;;;;;;30.38;nan;99347.91;4968116;28;20090;-67
2022/09/14 11:33:30;;;;;;;4.15;2.95;;;;;;;29.50;nan;99347.50;4969064;28;20480;-68
2022/09/14 11:36:15;;;;;;;4.00;3.08;;;;;;;28.47;nan;99337.84;4968558;28;20043;-67
2022/09/14 11:38:50;;;;;;;4.40;3.13;;;;;;;27.52;nan;99344.16;4963975;28;20611;-67
2022/09/14 11:41:21;;;;;;;5.75;3.55;;;;;;;27.04;nan;99346.16;4967844;28;20049;-68
2022/09/14 11:43:52;;;;;;;5.00;3.20;;;;;;;27.01;nan;99352.16;4971843;28;20046;-67
2022/09/14 11:46:22;;;;;;;4.32;2.80;;;;;;;26.86;nan;99358.53;4960572;28;20035;-67
2022/09/14 11:48:53;;;;;;;4.88;2.88;;;;;;;26.74;nan;99358.94;4964572;28;20114;-67
2022/09/14 11:51:33;;;;;;;3.90;2.83;;;;;;;26.63;nan;99357.44;4968647;28;20031;-67
2022/09/14 11:53:58;;;;;;;4.15;2.92;;;;;;;26.48;nan;99363.78;4969579;28;20519;-67
2022/09/14 11:56:30;;;;;;;4.60;3.00;;;;;;;26.26;nan;99362.34;4969298;28;20039;-67
2022/09/14 11:58:58;;;;;;;5.50;3.40;;;;;;;26.10;nan;99355.47;4973054;28;20047;-67
2022/09/14 12:01:36;;;;;;;5.30;2.88;;;;;;;26.09;nan;99348.41;4971645;28;20034;-67
2022/09/14 12:04:08;;;;;;;4.05;2.92;;;;;;;26.12;nan;99342.41;4970339;28;20038;-67
2022/09/14 12:06:36;;;;;;;5.15;3.58;;;;;;;26.15;nan;99336.44;4970388;28;20403;-67
2022/09/14 12:09:30;;;;;;;4.18;3.28;;;;;;;26.18;nan;99343.19;4972160;28;20035;-67
2022/09/14 12:12:01;;;;;;;4.95;2.83;;;;;;;26.15;nan;99330.19;4972128;28;20047;-68
2022/09/14 12:14:27;;;;;;;;;;;;;;;25.85;nan;99338.25;4971671;28;20393;-67
2022/09/14 12:17:11;;;;;;;4.38;3.05;;;;;;;25.91;nan;99336.38;4969707;28;19960;-67
2022/09/14 12:19:36;;;;;;;5.13;2.85;;;;;;;25.94;nan;99341.22;4970676;28;20051;-67
2022/09/14 12:22:31;;;;;;;4.85;3.03;;;;;;;25.79;nan;99341.28;4970668;28;20233;-68
2022/09/14 12:25:14;;;;;;;5.47;3.20;;;;;;;25.59;nan;99345.72;4971235;28;20041;-67
2022/09/14 12:27:41;;;;;;;3.35;3.05;;;;;;;25.45;nan;99342.03;4965613;28;20039;-67
2022/09/14 12:30:34;;;;;;;3.83;3.15;;;;;;;25.19;nan;99339.47;4969515;28;20515;-67
2022/09/14 12:33:00;;;;;;;5.53;3.50;;;;;;;24.98;nan;99340.59;4969888;28;20198;-67
2022/09/14 12:35:38;;;;;;;6.47;3.47;;;;;;;24.71;nan;99351.75;4970192;28;20031;-67
2022/09/14 12:38:28;;;;;;;5.30;2.72;;;;;;;24.52;nan;99357.72;4966186;28;20507;-67
2022/09/14 12:40:56;;;;;;;5.85;3.30;;;;;;;24.35;nan;99360.69;4970432;28;20030;-68
2022/09/14 12:43:33;;;;;;;5.35;3.55;;;;;;;24.14;nan;99364.47;4969231;28;20572;-67
2022/09/14 12:46:06;;;;;;;4.10;3.20;;;;;;;23.98;nan;99370.94;4971048;28;20051;-67